La Fayette, Kentucky
Current Conditions -  °F | °C
As of 1:59 PM on Thursday 27 Nov 2014 (Local Time) from KHOP Reporting Station
Broken Clouds Broken Clouds  
Wind Chill: 23°   Ceiling: 3300
Heat Index: 32°   Visibility: 10mi
Dew Point: 21°   Wind: 13mph
Humidity: 64%   Direction: 310°NW
Pressure: 30.44"   Gusts: NA
Location:  36.66°N, 87.66°W
Report Text: KHOP 271959Z AUTO 31011KT 10SM SCT026 BKN033 00/M06 A3044 RMK AO2
Loading
Personal Weather Stations






























Interactive Weather Map New forecast layout! Learn more

10-Day Weather Forecast

Advertisements
Track Severe Weather on mobile